Time;durP1;ratioP1;P1;durP2;ratioP2;P2;SDS_P1;SDS_P2;PMS_P1;PMS_P2;Temp;Humidity;BMP_temperature;BMP_pressure;BME280_temperature;BME280_humidity;BME280_pressure;Samples;Min_cycle;Max_cycle;Signal;HPM_P1;HPM_P2
2023/12/12 00:00:58;;;;;;;21.85;14.60;;;;;;;16.87;53.52;100860.94;5029209;28;20060;-36
2023/12/12 00:03:25;;;;;;;22.10;14.32;;;;;;;16.86;53.22;100863.78;5025238;28;20345;-36
2023/12/12 00:05:52;;;;;;;21.73;14.30;;;;;;;16.85;53.21;100864.78;5028941;28;20451;-36
2023/12/12 00:08:18;;;;;;;25.30;14.98;;;;;;;16.84;53.46;100868.41;5030949;28;20050;-36
2023/12/12 00:10:45;;;;;;;20.92;13.15;;;;;;;16.82;53.40;100871.25;5025417;28;20394;-36
2023/12/12 00:13:12;;;;;;;22.48;14.43;;;;;;;16.81;52.80;100866.03;5028629;28;20127;-36
2023/12/12 00:15:38;;;;;;;20.60;13.60;;;;;;;16.79;53.01;100871.53;5028809;28;20045;-36
2023/12/12 00:18:05;;;;;;;21.67;13.77;;;;;;;16.79;53.81;100868.84;5023013;28;20151;-35
2023/12/12 00:20:32;;;;;;;20.58;13.68;;;;;;;16.78;52.79;100867.16;5023817;28;20046;-36
2023/12/12 00:22:59;;;;;;;22.67;13.52;;;;;;;16.77;53.50;100862.81;5025023;28;20041;-36
2023/12/12 00:25:26;;;;;;;21.40;13.38;;;;;;;16.75;53.62;100862.94;5031734;28;20050;-36
2023/12/12 00:27:52;;;;;;;18.40;11.85;;;;;;;16.74;53.50;100866.59;5030979;28;20362;-36
2023/12/12 00:30:19;;;;;;;19.90;12.43;;;;;;;16.74;53.14;100861.25;5031460;28;20045;-36
2023/12/12 00:32:45;;;;;;;19.23;12.60;;;;;;;16.73;53.13;100864.94;5028651;28;20099;-36
2023/12/12 00:35:12;;;;;;;18.05;11.57;;;;;;;16.72;53.10;100863.22;5030581;28;20056;-36
2023/12/12 00:37:39;;;;;;;19.05;12.40;;;;;;;16.71;52.96;100869.53;5030275;28;20060;-36
2023/12/12 00:40:06;;;;;;;19.13;12.70;;;;;;;16.70;53.53;100870.53;5026156;28;20048;-36
2023/12/12 00:42:33;;;;;;;17.17;11.85;;;;;;;16.70;52.97;100867.03;5031277;28;20426;-36
2023/12/12 00:44:59;;;;;;;18.27;12.15;;;;;;;16.68;53.49;100863.63;5028129;28;20524;-36
2023/12/12 00:47:26;;;;;;;19.83;12.48;;;;;;;16.68;52.90;100868.97;5023080;28;20147;-36
2023/12/12 00:49:52;;;;;;;19.58;11.43;;;;;;;16.67;53.63;100870.81;5027445;28;20545;-36
2023/12/12 00:52:19;;;;;;;17.42;11.50;;;;;;;16.66;53.46;100869.13;5024374;28;20077;-36
2023/12/12 00:54:46;;;;;;;18.58;10.82;;;;;;;16.65;53.34;100875.47;5029959;28;20483;-36
2023/12/12 00:57:12;;;;;;;15.80;10.88;;;;;;;16.64;53.75;100872.94;5029959;28;20072;-36
2023/12/12 00:59:39;;;;;;;18.40;10.77;;;;;;;16.63;53.57;100863.22;5029469;28;20221;-36
2023/12/12 01:02:05;;;;;;;15.90;10.57;;;;;;;16.62;53.03;100865.06;5029187;28;20084;-36
2023/12/12 01:04:34;;;;;;;17.90;11.52;;;;;;;16.62;53.65;100867.72;5029993;28;20056;-36
2023/12/12 01:07:01;;;;;;;15.30;10.55;;;;;;;16.60;53.62;100858.16;5028682;28;20080;-36
2023/12/12 01:09:28;;;;;;;16.48;10.40;;;;;;;16.60;53.29;100863.50;5033238;28;20057;-36
2023/12/12 01:11:54;;;;;;;17.73;9.82;;;;;;;16.59;53.53;100861.81;5025066;28;20098;-36
2023/12/12 01:14:21;;;;;;;14.20;9.45;;;;;;;16.59;53.66;100860.00;5024900;28;20488;-36
2023/12/12 01:16:47;;;;;;;16.52;10.65;;;;;;;16.58;52.90;100860.97;5020434;28;20041;-36
2023/12/12 01:19:14;;;;;;;16.80;10.48;;;;;;;16.57;53.18;100858.47;5030207;28;20046;-36
2023/12/12 01:21:41;;;;;;;15.80;10.07;;;;;;;16.55;52.61;100863.94;5027252;28;20050;-37
2023/12/12 01:24:07;;;;;;;16.42;10.45;;;;;;;16.54;53.49;100860.41;5032776;28;20072;-36
2023/12/12 01:26:34;;;;;;;15.07;9.27;;;;;;;16.54;53.00;100854.22;5030428;28;20169;-37
2023/12/12 01:29:00;;;;;;;14.40;8.77;;;;;;;16.53;52.57;100852.56;5030261;28;20111;-38
2023/12/12 01:31:27;;;;;;;13.77;9.05;;;;;;;16.52;53.36;100851.72;5033354;28;20154;-37
2023/12/12 01:33:54;;;;;;;13.52;8.63;;;;;;;16.51;53.43;100852.69;5030930;28;20049;-37
2023/12/12 01:36:20;;;;;;;14.48;8.65;;;;;;;16.51;53.01;100855.34;5033664;28;20045;-38
2023/12/12 01:38:47;;;;;;;14.68;9.13;;;;;;;16.51;53.30;100854.50;5031864;28;20059;-37
2023/12/12 01:41:14;;;;;;;13.15;8.00;;;;;;;16.51;53.85;100854.50;5028637;28;20162;-37
2023/12/12 01:43:40;;;;;;;14.45;8.90;;;;;;;16.50;53.16;100842.13;5026483;28;20101;-37
2023/12/12 01:46:11;;;;;;;14.20;8.40;;;;;;;16.49;53.56;100845.81;5027278;28;20392;-37
2023/12/12 01:48:38;;;;;;;13.30;8.38;;;;;;;16.49;53.31;100845.81;5030759;28;20056;-37
2023/12/12 01:51:05;;;;;;;12.32;8.05;;;;;;;16.48;53.60;100842.28;5035214;28;20057;-37
2023/12/12 01:53:40;;;;;;;12.20;8.35;;;;;;;16.47;52.69;100843.25;5033339;28;20188;-37
2023/12/12 01:56:07;;;;;;;;;;;;;;;16.44;52.98;100837.34;5027854;28;20136;-37
2023/12/12 01:58:35;;;;;;;12.68;7.93;;;;;;;16.50;53.30;100839.44;5032790;28;19931;-37
2023/12/12 02:01:03;;;;;;;12.15;7.13;;;;;;;16.47;53.23;100837.06;5031726;28;20064;-37
2023/12/12 02:03:31;;;;;;;13.00;7.95;;;;;;;16.45;53.53;100833.69;5031008;28;20049;-37
2023/12/12 02:05:58;;;;;;;12.45;7.60;;;;;;;16.44;53.38;100829.31;5031281;28;20067;-37
2023/12/12 02:08:25;;;;;;;11.40;7.45;;;;;;;16.43;53.37;100831.16;5030817;28;20045;-37
2023/12/12 02:10:52;;;;;;;10.38;7.13;;;;;;;16.43;52.97;100830.31;5026808;28;20133;-37
2023/12/12 02:13:20;;;;;;;12.70;7.90;;;;;;;16.43;53.36;100835.66;5022068;28;20077;-37
2023/12/12 02:15:47;;;;;;;10.68;6.68;;;;;;;16.41;52.61;100829.63;5030502;28;20053;-37
2023/12/12 02:18:14;;;;;;;9.00;6.47;;;;;;;16.41;53.51;100824.28;5032903;28;20605;-37
2023/12/12 02:20:41;;;;;;;10.00;6.63;;;;;;;16.41;52.81;100838.50;5035909;28;20054;-37
2023/12/12 02:23:08;;;;;;;11.32;6.72;;;;;;;16.43;53.47;100836.50;5027382;28;20591;-37
2023/12/12 02:25:36;;;;;;;12.35;7.28;;;;;;;16.49;52.69;100835.09;5033821;28;20346;-38
2023/12/12 02:28:03;;;;;;;11.18;7.13;;;;;;;16.57;53.50;100827.19;5032462;28;20124;-37
2023/12/12 02:30:30;;;;;;;9.13;6.68;;;;;;;16.66;52.95;100833.50;5031577;28;20461;-38
2023/12/12 02:32:58;;;;;;;9.55;6.60;;;;;;;16.74;51.83;100833.66;5031526;28;20424;-37
2023/12/12 02:35:25;;;;;;;12.50;6.35;;;;;;;16.80;52.26;100842.91;5031979;28;20061;-38
2023/12/12 02:37:51;;;;;;;11.65;7.00;;;;;;;16.86;51.89;100835.16;5028956;28;20403;-36
2023/12/12 02:40:18;;;;;;;10.27;6.35;;;;;;;16.94;52.47;100839.78;5032092;28;20104;-36
2023/12/12 02:42:46;;;;;;;10.52;5.93;;;;;;;17.01;52.33;100836.38;5035207;28;20060;-36
2023/12/12 02:45:13;;;;;;;11.23;6.55;;;;;;;17.08;51.91;100839.28;5030680;28;20449;-36
2023/12/12 02:47:39;;;;;;;9.73;5.88;;;;;;;17.13;51.85;100834.34;5029834;28;20045;-36
2023/12/12 02:50:06;;;;;;;10.40;6.25;;;;;;;17.19;51.32;100833.75;5032232;28;20045;-36
2023/12/12 02:52:33;;;;;;;9.07;5.57;;;;;;;17.23;51.40;100828.94;5030562;28;20046;-36
2023/12/12 02:55:00;;;;;;;7.68;5.85;;;;;;;17.23;51.60;100824.44;5028586;28;20042;-36
2023/12/12 02:57:26;;;;;;;8.35;5.75;;;;;;;17.25;50.93;100821.63;5031855;28;21463;-36
2023/12/12 02:59:53;;;;;;;8.65;5.50;;;;;;;17.24;50.93;100818.06;5031817;28;20425;-36
2023/12/12 03:02:19;;;;;;;8.07;5.60;;;;;;;17.25;51.23;100813.59;5031477;28;20393;-36
2023/12/12 03:04:46;;;;;;;7.30;5.28;;;;;;;17.26;51.25;100813.41;5030562;28;20112;-36
2023/12/12 03:07:13;;;;;;;8.00;5.13;;;;;;;17.25;51.29;100810.91;5043283;28;20053;-36
2023/12/12 03:09:40;;;;;;;8.25;5.15;;;;;;;17.23;51.12;100808.34;5033242;28;20128;-36
2023/12/12 03:12:06;;;;;;;8.98;5.40;;;;;;;17.24;51.31;100806.50;5031613;28;20403;-36
2023/12/12 03:14:34;;;;;;;9.02;5.28;;;;;;;17.24;51.26;100804.69;5028367;28;20123;-36
2023/12/12 03:17:01;;;;;;;8.30;5.43;;;;;;;17.23;50.90;100796.81;5029572;28;20053;-36
2023/12/12 03:19:28;;;;;;;9.45;5.60;;;;;;;17.22;50.79;100795.13;5023828;28;20144;-36
2023/12/12 03:21:55;;;;;;;10.10;5.57;;;;;;;17.22;50.89;100797.81;5028708;28;20140;-36
2023/12/12 03:24:22;;;;;;;8.07;4.93;;;;;;;17.20;51.13;100797.09;5028240;28;20054;-37
2023/12/12 03:26:48;;;;;;;7.75;5.43;;;;;;;17.18;51.29;100797.25;5033799;28;20326;-37
2023/12/12 03:29:15;;;;;;;8.05;5.07;;;;;;;17.13;51.35;100796.88;5027895;28;20056;-38
2023/12/12 03:31:41;;;;;;;7.68;5.25;;;;;;;17.10;51.50;100802.50;5027585;28;20091;-37
2023/12/12 03:34:08;;;;;;;8.30;5.05;;;;;;;17.06;51.07;100801.13;5031677;28;20423;-37
2023/12/12 03:36:35;;;;;;;8.32;4.78;;;;;;;16.98;51.27;100796.50;5035247;28;20053;-37
2023/12/12 03:39:02;;;;;;;9.20;4.80;;;;;;;16.93;51.74;100803.31;5025076;28;20452;-37
2023/12/12 03:41:30;;;;;;;6.97;4.50;;;;;;;16.87;51.62;100807.41;5029998;28;20445;-37
2023/12/12 03:43:56;;;;;;;7.43;4.40;;;;;;;16.81;51.35;100813.34;5028154;28;20045;-37
2023/12/12 03:46:23;;;;;;;8.70;5.47;;;;;;;16.75;51.89;100806.72;5026383;28;20103;-37
2023/12/12 03:48:50;;;;;;;7.22;4.40;;;;;;;16.69;51.75;100807.31;5029232;28;20049;-37
2023/12/12 03:51:16;;;;;;;9.52;4.82;;;;;;;16.63;51.86;100799.84;5029837;28;20137;-37
2023/12/12 03:53:43;;;;;;;7.30;4.68;;;;;;;16.58;52.06;100788.75;5029431;28;20057;-38
2023/12/12 03:56:09;;;;;;;6.57;4.65;;;;;;;16.54;52.47;100788.19;5027528;28;20075;-37
2023/12/12 03:58:36;;;;;;;8.25;4.70;;;;;;;16.49;52.49;100793.13;5027689;28;20103;-37
2023/12/12 04:01:03;;;;;;;6.35;4.32;;;;;;;16.48;52.59;100785.22;5023509;28;20421;-37
2023/12/12 04:03:31;;;;;;;9.30;4.82;;;;;;;16.47;52.41;100786.22;5026315;28;20141;-37
2023/12/12 04:06:01;;;;;;;6.78;4.72;;;;;;;16.54;52.74;100790.00;5028215;28;20055;-37
2023/12/12 04:08:28;;;;;;;7.13;4.10;;;;;;;16.65;51.70;100780.97;5029666;28;20072;-37
2023/12/12 04:10:55;;;;;;;7.28;4.10;;;;;;;16.73;52.08;100778.44;5030000;28;20054;-37
2023/12/12 04:13:22;;;;;;;6.35;4.38;;;;;;;16.82;51.58;100780.22;5028288;28;20261;-37
2023/12/12 04:15:49;;;;;;;8.90;4.60;;;;;;;16.91;52.15;100778.50;5027648;28;20069;-37
2023/12/12 04:18:15;;;;;;;8.18;4.57;;;;;;;16.99;52.16;100773.25;5030610;28;20072;-36
2023/12/12 04:20:42;;;;;;;5.72;4.03;;;;;;;17.06;51.60;100769.00;5034954;28;20087;-36
2023/12/12 04:23:08;;;;;;;8.05;4.15;;;;;;;17.11;51.23;100761.34;5029698;28;20049;-36
2023/12/12 04:25:35;;;;;;;6.47;3.85;;;;;;;17.16;51.30;100766.25;5030680;28;20053;-36
2023/12/12 04:28:02;;;;;;;6.93;3.90;;;;;;;17.18;51.55;100759.75;5025365;28;20041;-36
2023/12/12 04:30:29;;;;;;;5.88;4.05;;;;;;;17.20;51.23;100763.13;5029841;28;20048;-36
2023/12/12 04:32:55;;;;;;;9.35;4.60;;;;;;;17.22;51.34;100753.09;5024423;28;20111;-36
2023/12/12 04:35:22;;;;;;;5.80;4.05;;;;;;;17.22;51.08;100753.09;5029734;28;20042;-36
2023/12/12 04:37:48;;;;;;;7.35;4.22;;;;;;;17.22;51.02;100753.09;5024054;28;20104;-36
2023/12/12 04:40:15;;;;;;;6.07;3.92;;;;;;;17.22;51.00;100745.06;5030958;28;20097;-36
2023/12/12 04:42:42;;;;;;;7.43;3.63;;;;;;;17.22;51.27;100745.06;5030209;28;20050;-36
2023/12/12 04:45:09;;;;;;;7.72;4.00;;;;;;;17.22;50.89;100736.19;5029589;28;20050;-37
2023/12/12 04:47:36;;;;;;;6.13;3.83;;;;;;;17.24;51.03;100743.06;5030946;28;20045;-36
2023/12/12 04:50:03;;;;;;;6.63;3.90;;;;;;;17.23;50.87;100733.34;5032553;28;20425;-36
2023/12/12 04:52:30;;;;;;;5.78;3.63;;;;;;;17.23;51.40;100733.34;5030512;28;20061;-36
2023/12/12 04:54:57;;;;;;;7.05;4.03;;;;;;;17.25;51.15;100741.25;5026657;28;20131;-36
2023/12/12 04:57:23;;;;;;;6.53;4.22;;;;;;;17.25;51.19;100744.78;5033145;28;20510;-36
2023/12/12 04:59:50;;;;;;;4.82;3.50;;;;;;;17.26;50.71;100742.94;5034964;28;20045;-36
2023/12/12 05:02:17;;;;;;;9.35;4.57;;;;;;;17.25;50.55;100741.25;5033610;28;20092;-36
2023/12/12 05:04:43;;;;;;;7.68;4.18;;;;;;;17.25;50.75;100735.91;5034644;28;20044;-36
2023/12/12 05:07:10;;;;;;;5.95;3.22;;;;;;;17.25;50.97;100730.53;5031102;28;20053;-36
2023/12/12 05:09:37;;;;;;;5.38;3.30;;;;;;;17.24;50.74;100727.00;5027479;28;20045;-37
2023/12/12 05:12:04;;;;;;;8.25;3.95;;;;;;;17.24;51.18;100729.69;5030426;28;20053;-36
2023/12/12 05:14:31;;;;;;;7.57;3.80;;;;;;;17.23;51.20;100730.69;5028373;28;20485;-36
2023/12/12 05:16:57;;;;;;;9.95;4.00;;;;;;;17.23;51.02;100733.34;5031639;28;20119;-36
2023/12/12 05:19:35;;;;;;;6.45;4.20;;;;;;;17.23;51.14;100722.63;5031957;28;20999;-36
2023/12/12 05:22:03;;;;;;;6.68;3.75;;;;;;;17.23;50.76;100722.63;5030773;28;20056;-36
2023/12/12 05:24:29;;;;;;;6.68;3.70;;;;;;;17.27;50.89;100721.34;5029904;28;20504;-36
2023/12/12 05:26:56;;;;;;;5.40;4.05;;;;;;;17.31;50.72;100715.69;5030626;28;20049;-36
2023/12/12 05:29:23;;;;;;;8.43;4.68;;;;;;;17.34;50.74;100721.59;5029407;28;20095;-36
2023/12/12 05:31:49;;;;;;;6.68;3.92;;;;;;;17.36;50.89;100714.22;5042681;28;20426;-36
2023/12/12 05:34:16;;;;;;;11.07;4.68;;;;;;;17.38;50.37;100717.63;5026182;28;20049;-37
2023/12/12 05:36:42;;;;;;;9.23;4.47;;;;;;;17.39;50.87;100708.56;5031117;28;20084;-36
2023/12/12 05:39:09;;;;;;;7.57;4.45;;;;;;;17.40;50.30;100717.44;5026508;28;20096;-36
2023/12/12 05:41:36;;;;;;;7.80;4.82;;;;;;;17.42;50.95;100718.16;5029448;28;20046;-36
2023/12/12 05:44:05;;;;;;;7.25;4.57;;;;;;;17.40;50.83;100714.78;5029287;28;20073;-36
2023/12/12 05:46:32;;;;;;;7.30;4.43;;;;;;;17.40;50.77;100720.13;5029610;28;20053;-37
2023/12/12 05:48:59;;;;;;;8.75;4.40;;;;;;;17.37;50.65;100715.94;5028569;28;20077;-36
2023/12/12 05:51:26;;;;;;;7.03;4.85;;;;;;;17.37;51.12;100717.78;5032052;28;20054;-36
2023/12/12 05:53:53;;;;;;;8.48;4.65;;;;;;;17.36;50.88;100716.06;5030758;28;20049;-36
2023/12/12 05:56:20;;;;;;;8.88;5.03;;;;;;;17.37;50.85;100720.47;5034219;28;20041;-36
2023/12/12 05:58:47;;;;;;;9.25;4.93;;;;;;;17.36;50.74;100713.38;5030327;28;20445;-36
2023/12/12 06:01:17;;;;;;;9.82;5.18;;;;;;;17.36;51.02;100713.38;5031023;28;20045;-36
2023/12/12 06:03:44;;;;;;;9.57;4.90;;;;;;;17.36;50.28;100700.00;5042389;28;20578;-36
2023/12/12 06:06:11;;;;;;;8.15;5.22;;;;;;;17.35;50.88;100704.50;5027176;28;20046;-36
2023/12/12 06:08:38;;;;;;;10.57;5.50;;;;;;;17.34;50.62;100696.63;5028815;28;20103;-36
2023/12/12 06:11:06;;;;;;;9.65;5.30;;;;;;;17.35;50.25;100698.31;5025685;28;20099;-36
2023/12/12 06:13:33;;;;;;;10.85;5.28;;;;;;;17.33;51.07;100693.13;5026930;28;20133;-36
2023/12/12 06:16:00;;;;;;;9.70;5.30;;;;;;;17.33;50.64;100694.97;5028724;28;20049;-36
2023/12/12 06:18:27;;;;;;;10.60;5.60;;;;;;;17.31;50.51;100692.41;5026242;28;20050;-36
2023/12/12 06:20:54;;;;;;;9.55;5.85;;;;;;;17.32;50.33;100699.47;5033637;28;20170;-36
2023/12/12 06:23:21;;;;;;;8.88;5.13;;;;;;;17.30;51.10;100695.25;5029152;28;20049;-36
2023/12/12 06:25:48;;;;;;;8.77;5.32;;;;;;;17.28;50.35;100687.34;5033223;28;20092;-36
2023/12/12 06:28:14;;;;;;;13.23;6.10;;;;;;;17.27;50.74;100686.53;5025733;28;20493;-36
2023/12/12 06:30:41;;;;;;;9.93;5.90;;;;;;;17.27;50.28;100681.16;5029075;28;20128;-36
2023/12/12 06:33:09;;;;;;;11.77;6.28;;;;;;;17.26;50.80;100682.16;5021567;28;20052;-37
2023/12/12 06:35:36;;;;;;;7.72;4.90;;;;;;;17.26;50.99;100674.13;5025393;28;20140;-36
2023/12/12 06:38:04;;;;;;;11.15;5.72;;;;;;;17.26;50.78;100674.13;5028009;28;20046;-36
2023/12/12 06:40:30;;;;;;;9.43;5.60;;;;;;;17.31;50.92;100681.69;5026640;28;20140;-36
2023/12/12 06:42:57;;;;;;;10.88;5.55;;;;;;;17.36;50.55;100668.69;5026021;28;20363;-36
2023/12/12 06:45:24;;;;;;;11.02;5.68;;;;;;;17.42;50.47;100668.09;5025686;28;20049;-37
2023/12/12 06:47:51;;;;;;;8.02;4.80;;;;;;;17.50;50.25;100670.00;5031356;28;20412;-36
2023/12/12 06:50:17;;;;;;;9.05;5.70;;;;;;;17.56;49.90;100657.81;5031678;28;20049;-36
2023/12/12 06:52:44;;;;;;;11.15;5.60;;;;;;;17.62;50.27;100660.72;5027057;28;20135;-36
2023/12/12 06:55:11;;;;;;;9.70;6.03;;;;;;;17.67;50.29;100653.03;5027063;28;20426;-37
2023/12/12 06:57:37;;;;;;;10.27;5.18;;;;;;;17.71;49.79;100654.41;5030105;28;20052;-36
2023/12/12 07:00:06;;;;;;;10.63;5.47;;;;;;;17.75;50.04;100653.13;5032351;28;20381;-37
2023/12/12 07:02:33;;;;;;;11.98;5.97;;;;;;;17.78;49.72;100643.94;5024365;28;20073;-36
2023/12/12 07:05:00;;;;;;;11.07;5.97;;;;;;;17.80;50.23;100639.25;5024588;28;20399;-37
2023/12/12 07:07:27;;;;;;;11.02;5.47;;;;;;;17.83;49.79;100632.75;5026041;28;20158;-36
2023/12/12 07:09:54;;;;;;;9.57;6.03;;;;;;;17.86;50.02;100638.66;5024097;28;20342;-36
2023/12/12 07:12:26;;;;;;;12.43;6.20;;;;;;;17.92;49.85;100643.34;5023254;28;20050;-36
2023/12/12 07:15:12;;;;;;;11.52;6.15;;;;;;;17.99;49.05;100636.38;5021886;28;20052;-36
2023/12/12 07:17:40;;;;;;;9.63;5.97;;;;;;;18.06;49.77;100633.91;5019594;28;20065;-36
2023/12/12 07:20:11;;;;;;;10.75;6.05;;;;;;;18.13;49.35;100634.09;5020911;28;20128;-36
2023/12/12 07:22:38;;;;;;;11.60;6.57;;;;;;;18.20;49.44;100635.97;5023474;28;20057;-36
2023/12/12 07:25:05;;;;;;;11.88;5.82;;;;;;;18.26;49.60;100631.84;5027451;28;20125;-36
2023/12/12 07:27:32;;;;;;;7.72;4.97;;;;;;;18.33;49.58;100624.84;5026061;28;20054;-37
2023/12/12 07:29:59;;;;;;;13.30;7.18;;;;;;;18.39;49.11;100626.84;5027373;28;20103;-36
2023/12/12 07:32:27;;;;;;;11.45;6.38;;;;;;;18.45;48.90;100625.34;5029257;28;20057;-36
2023/12/12 07:34:53;;;;;;;9.45;5.32;;;;;;;18.51;49.26;100624.72;5025668;28;20038;-36
2023/12/12 07:37:20;;;;;;;10.98;5.53;;;;;;;18.57;49.03;100613.31;5025304;28;20045;-36
2023/12/12 07:39:47;;;;;;;8.70;5.13;;;;;;;18.62;48.88;100612.84;5029477;28;20492;-36
2023/12/12 07:42:13;;;;;;;9.50;5.28;;;;;;;18.69;49.11;100613.88;5031403;28;20065;-36
2023/12/12 07:44:40;;;;;;;9.00;5.43;;;;;;;18.72;48.92;100603.66;5017964;28;20087;-37
2023/12/12 07:47:07;;;;;;;10.77;5.35;;;;;;;18.77;48.97;100599.66;5021762;28;20057;-36
2023/12/12 07:49:34;;;;;;;11.77;6.20;;;;;;;18.81;48.44;100601.84;5022732;28;20049;-36
2023/12/12 07:52:01;;;;;;;8.75;5.38;;;;;;;18.86;48.96;100598.69;5023181;28;20049;-37
2023/12/12 07:54:27;;;;;;;9.48;5.10;;;;;;;18.89;48.73;100585.75;5024350;28;20046;-37
2023/12/12 07:56:54;;;;;;;11.05;5.50;;;;;;;18.94;48.36;100582.59;5028143;28;20103;-36
2023/12/12 07:59:21;;;;;;;9.30;5.55;;;;;;;18.97;49.07;100584.91;5024924;28;20073;-36
2023/12/12 08:01:47;;;;;;;8.35;5.40;;;;;;;18.99;48.18;100582.91;5025413;28;20398;-36
2023/12/12 08:04:15;;;;;;;9.45;4.68;;;;;;;19.03;48.21;100572.69;5027956;28;20057;-37
2023/12/12 08:06:42;;;;;;;8.98;5.07;;;;;;;19.06;48.51;100577.72;5025759;28;20394;-36
2023/12/12 08:09:08;;;;;;;8.82;5.13;;;;;;;19.07;48.89;100577.56;5021407;28;20785;-36
2023/12/12 08:11:35;;;;;;;8.23;4.88;;;;;;;19.09;48.65;100566.63;5028093;28;20071;-36
2023/12/12 08:14:02;;;;;;;7.25;5.10;;;;;;;19.10;48.55;100566.47;5020270;28;20052;-36
2023/12/12 08:16:29;;;;;;;9.57;5.78;;;;;;;19.08;48.72;100560.41;5022568;28;20492;-36
2023/12/12 08:18:56;;;;;;;8.38;5.10;;;;;;;19.08;48.57;100564.97;5021882;28;20428;-36
2023/12/12 08:21:23;;;;;;;9.55;5.57;;;;;;;19.05;48.60;100566.13;5023916;28;20303;-37
2023/12/12 08:23:49;;;;;;;8.25;4.88;;;;;;;19.04;48.69;100560.94;5026134;28;20167;-36
2023/12/12 08:26:16;;;;;;;8.30;4.85;;;;;;;19.00;48.05;100563.09;5027488;28;20542;-36
2023/12/12 08:28:43;;;;;;;7.22;5.15;;;;;;;18.97;48.28;100558.06;5024952;28;20041;-36
2023/12/12 08:31:09;;;;;;;10.07;4.95;;;;;;;18.94;48.44;100550.34;5027259;28;20045;-36
2023/12/12 08:33:36;;;;;;;9.13;4.97;;;;;;;18.94;48.55;100553.88;5021317;28;20050;-37
2023/12/12 08:36:03;;;;;;;7.78;4.70;;;;;;;18.95;48.27;100544.81;5020484;28;20377;-36
2023/12/12 08:38:30;;;;;;;8.50;5.20;;;;;;;18.98;48.47;100543.66;5023046;28;20085;-36
2023/12/12 08:40:57;;;;;;;8.48;5.38;;;;;;;18.99;48.75;100540.78;5020445;28;20072;-37
2023/12/12 08:43:24;;;;;;;9.48;5.10;;;;;;;19.03;48.59;100543.97;5021755;28;20433;-37
2023/12/12 08:45:52;;;;;;;8.98;5.00;;;;;;;19.06;48.51;100537.44;5022772;28;20045;-37
2023/12/12 08:48:19;;;;;;;8.05;4.68;;;;;;;19.08;48.58;100538.94;5020733;28;20314;-36
2023/12/12 08:50:48;;;;;;;9.60;4.85;;;;;;;19.10;49.07;100530.72;5026784;28;20099;-36
2023/12/12 08:53:15;;;;;;;9.10;5.30;;;;;;;19.10;48.95;100528.88;5023423;28;20439;-36
2023/12/12 08:55:42;;;;;;;8.43;4.88;;;;;;;19.10;48.71;100528.88;5025921;28;20062;-36
2023/12/12 08:58:10;;;;;;;11.32;5.32;;;;;;;19.09;48.39;100527.16;5024125;28;20054;-37
2023/12/12 09:00:38;;;;;;;7.85;5.10;;;;;;;19.10;48.25;100520.81;5023286;28;20544;-36
2023/12/12 09:03:05;;;;;;;8.98;5.15;;;;;;;19.09;48.98;100519.13;5026268;28;20041;-36
2023/12/12 09:05:32;;;;;;;8.63;4.65;;;;;;;19.09;48.77;100524.47;5024575;28;20041;-37
2023/12/12 09:07:59;;;;;;;8.48;5.22;;;;;;;19.07;48.34;100513.09;5023593;28;20045;-36
2023/12/12 09:10:26;;;;;;;7.15;4.80;;;;;;;19.06;48.51;100508.72;5024316;28;20056;-36
2023/12/12 09:12:52;;;;;;;9.10;4.88;;;;;;;19.04;48.36;100502.66;5021974;28;20053;-36
2023/12/12 09:15:19;;;;;;;7.47;4.13;;;;;;;19.02;48.36;100502.00;5024006;28;20065;-37
2023/12/12 09:17:46;;;;;;;7.53;4.47;;;;;;;18.98;48.31;100498.00;5020100;28;20137;-36
2023/12/12 09:20:32;;;;;;;8.40;4.47;;;;;;;18.96;48.23;100494.63;5025767;28;20452;-37
2023/12/12 09:22:59;;;;;;;8.43;4.15;;;;;;;18.93;48.52;100493.09;5026137;28;20452;-36
2023/12/12 09:25:26;;;;;;;8.73;4.43;;;;;;;18.93;48.65;100476.97;5026820;28;20046;-36
2023/12/12 09:27:53;;;;;;;10.68;4.90;;;;;;;18.94;48.42;100478.69;5023719;28;20076;-36
2023/12/12 09:30:19;;;;;;;9.38;4.65;;;;;;;18.97;48.64;100482.84;5025816;28;20095;-36
2023/12/12 09:32:46;;;;;;;8.30;4.50;;;;;;;19.00;48.77;100471.78;5022128;28;20049;-36
2023/12/12 09:35:15;;;;;;;8.90;4.80;;;;;;;19.01;48.32;100473.44;5028111;28;20326;-36
2023/12/12 09:37:42;;;;;;;9.50;4.53;;;;;;;19.02;48.40;100459.03;5026099;28;20053;-37
2023/12/12 09:40:12;;;;;;;7.38;4.03;;;;;;;19.02;49.27;100460.88;5026082;28;20073;-36
2023/12/12 09:42:40;;;;;;;9.07;4.55;;;;;;;19.01;49.19;100456.50;5025707;28;20049;-36
2023/12/12 09:45:16;;;;;;;8.73;4.57;;;;;;;18.98;48.90;100450.47;5028814;28;20048;-37
2023/12/12 09:47:44;;;;;;;9.25;4.38;;;;;;;18.98;48.77;100452.34;5026525;28;20132;-37
2023/12/12 09:50:12;;;;;;;9.90;4.30;;;;;;;18.95;48.54;100442.75;5023635;28;20045;-37
2023/12/12 09:52:39;;;;;;;10.15;4.80;;;;;;;18.92;48.84;100440.41;5026010;28;20072;-37
2023/12/12 09:55:06;;;;;;;11.10;4.85;;;;;;;18.90;48.61;100436.22;5026106;28;20046;-37
2023/12/12 09:57:33;;;;;;;9.70;4.55;;;;;;;18.88;48.86;100425.63;5025602;28;20091;-37
2023/12/12 10:00:00;;;;;;;7.28;4.10;;;;;;;18.88;48.47;100433.69;5024961;28;20050;-37
2023/12/12 10:02:33;;;;;;;10.32;4.43;;;;;;;18.90;48.73;100430.84;5023975;28;20103;-36
2023/12/12 10:05:02;;;;;;;8.93;4.32;;;;;;;18.93;49.08;100423.25;5029842;28;20091;-36
2023/12/12 10:07:31;;;;;;;9.00;4.70;;;;;;;18.95;49.23;100421.28;5032882;28;20065;-37
2023/12/12 10:09:59;;;;;;;7.55;4.78;;;;;;;18.98;48.79;100412.03;5025564;28;20380;-37
2023/12/12 10:12:25;;;;;;;6.68;4.05;;;;;;;18.99;48.61;100402.97;5024201;28;20050;-37
2023/12/12 10:14:56;;;;;;;8.85;4.65;;;;;;;19.03;49.26;100407.00;5025856;28;20060;-36
2023/12/12 10:17:24;;;;;;;6.63;3.72;;;;;;;19.04;48.85;100402.44;5024399;28;20053;-36
2023/12/12 10:20:03;;;;;;;11.23;5.13;;;;;;;19.03;48.96;100401.63;5025074;28;20054;-36
2023/12/12 10:22:33;;;;;;;11.68;4.60;;;;;;;19.04;49.16;100395.22;5025471;28;20059;-37
2023/12/12 10:25:12;;;;;;;9.73;4.68;;;;;;;19.03;48.87;100390.88;5027371;28;20053;-37
2023/12/12 10:27:42;;;;;;;9.63;4.60;;;;;;;19.03;48.67;100390.03;5028308;28;20055;-36
2023/12/12 10:30:13;;;;;;;9.32;4.18;;;;;;;19.01;48.52;100397.41;5027075;28;20045;-36
2023/12/12 10:32:40;;;;;;;9.25;4.10;;;;;;;19.00;48.76;100396.59;5027582;28;20045;-37
2023/12/12 10:35:07;;;;;;;8.20;3.75;;;;;;;18.98;48.93;100388.72;5028733;28;20108;-36
2023/12/12 10:37:34;;;;;;;8.40;4.30;;;;;;;18.96;49.19;100379.97;5026458;28;20213;-36
2023/12/12 10:40:27;;;;;;;11.98;4.50;;;;;;;18.91;48.73;100373.44;5030791;28;20044;-37
2023/12/12 10:42:55;;;;;;;9.30;4.22;;;;;;;18.91;48.63;100376.13;5021183;28;20049;-36
2023/12/12 10:45:23;;;;;;;8.48;3.85;;;;;;;18.88;48.66;100365.72;5022461;28;20115;-36
2023/12/12 10:47:51;;;;;;;7.03;4.20;;;;;;;18.85;48.68;100360.69;5023794;28;20119;-36
2023/12/12 10:50:19;;;;;;;9.38;4.00;;;;;;;18.80;48.72;100363.88;5025087;28;20056;-36
2023/12/12 10:52:48;;;;;;;7.03;3.88;;;;;;;18.78;48.79;100355.19;5021381;28;20144;-36
2023/12/12 10:55:16;;;;;;;10.10;4.25;;;;;;;18.76;48.99;100359.88;5029659;28;20645;-36
2023/12/12 10:57:45;;;;;;;8.20;4.10;;;;;;;18.72;49.18;100348.63;5023889;28;20550;-37
2023/12/12 11:00:14;;;;;;;9.13;4.22;;;;;;;18.69;49.07;100335.53;5023572;28;20108;-36
2023/12/12 11:02:45;;;;;;;8.43;3.83;;;;;;;18.67;49.13;100339.38;5025508;28;20061;-36
2023/12/12 11:05:13;;;;;;;7.65;3.58;;;;;;;18.64;49.05;100331.66;5026918;28;20056;-36
2023/12/12 11:07:42;;;;;;;8.63;3.58;;;;;;;18.62;48.66;100331.84;5025687;28;20064;-36
2023/12/12 11:10:16;;;;;;;7.55;3.60;;;;;;;18.60;49.36;100327.66;5022672;28;20111;-36
2023/12/12 11:12:48;;;;;;;9.27;4.50;;;;;;;18.57;48.93;100320.75;5023385;28;20119;-36
2023/12/12 11:15:17;;;;;;;7.95;3.97;;;;;;;18.54;49.34;100312.25;5018757;28;20105;-36
2023/12/12 11:17:45;;;;;;;8.63;3.60;;;;;;;18.52;49.39;100309.72;5019351;28;20108;-36
2023/12/12 11:20:17;;;;;;;7.45;3.63;;;;;;;18.50;49.30;100296.47;5027653;28;20056;-36
2023/12/12 11:22:48;;;;;;;10.20;3.70;;;;;;;18.48;49.71;100298.47;5024768;28;20057;-36